createdAt,value
2019-02-17T00:01:21.640Z,37.50
2019-02-17T00:02:45.105Z,30.63
2019-02-17T00:04:08.874Z,35.27
2019-02-17T00:05:32.301Z,31.53
2019-02-17T00:06:55.702Z,28.97
2019-02-17T00:08:00.078Z,29.33
2019-02-17T00:09:23.491Z,28.63
2019-02-17T00:10:46.895Z,28.57
2019-02-17T00:12:10.491Z,29.40
2019-02-17T00:13:34.004Z,29.50
2019-02-17T00:14:57.404Z,33.23
2019-02-17T00:16:13.772Z,31.57
2019-02-17T00:17:29.941Z,30.37
2019-02-17T00:18:45.988Z,29.57
2019-02-17T00:20:02.059Z,32.47
2019-02-17T00:21:18.094Z,29.93
2019-02-17T00:22:33.968Z,27.70
2019-02-17T00:23:50.020Z,35.13
2019-02-17T00:25:06.054Z,30.63
2019-02-17T00:26:22.036Z,32.03
2019-02-17T00:27:38.394Z,29.80
2019-02-17T00:28:59.537Z,28.03
2019-02-17T00:30:12.144Z,27.87
2019-02-17T00:31:28.019Z,33.37
2019-02-17T00:32:44.091Z,34.27
2019-02-17T00:34:01.269Z,34.63
2019-02-17T00:35:17.355Z,26.90
2019-02-17T00:36:33.369Z,33.70
2019-02-17T00:37:49.438Z,39.63
2019-02-17T00:39:05.656Z,32.30
2019-02-17T00:40:21.777Z,39.57
2019-02-17T00:41:38.386Z,36.13
2019-02-17T00:42:54.616Z,34.17
2019-02-17T00:44:11.185Z,27.10
2019-02-17T00:45:27.217Z,27.83
2019-02-17T00:46:43.452Z,33.83
2019-02-17T00:47:59.496Z,27.13
2019-02-17T00:49:15.415Z,31.40
2019-02-17T00:50:31.364Z,29.07
2019-02-17T00:51:47.597Z,27.93
2019-02-17T00:53:04.044Z,28.00
2019-02-17T00:54:20.083Z,31.73
2019-02-17T00:55:36.484Z,33.93
2019-02-17T00:56:52.688Z,32.90
2019-02-17T00:58:08.929Z,32.77
2019-02-17T00:59:25.438Z,34.10
2019-02-17T01:00:41.198Z,29.83
2019-02-17T01:01:56.993Z,31.37
2019-02-17T01:03:13.064Z,30.63
2019-02-17T01:04:29.435Z,30.67
2019-02-17T01:05:45.925Z,27.03
2019-02-17T01:07:02.592Z,29.63
2019-02-17T01:08:18.223Z,30.33
2019-02-17T01:09:34.061Z,31.27
2019-02-17T01:10:50.353Z,30.10
2019-02-17T01:12:06.697Z,30.77
2019-02-17T01:13:22.928Z,28.43
2019-02-17T01:14:39.230Z,28.13
2019-02-17T01:15:55.406Z,33.10
2019-02-17T01:17:11.490Z,30.87
2019-02-17T01:18:27.571Z,31.63
2019-02-17T01:19:43.614Z,34.20
2019-02-17T01:20:59.932Z,33.60
2019-02-17T01:22:16.467Z,29.83
2019-02-17T01:23:33.013Z,30.00
2019-02-17T01:24:49.533Z,31.20
2019-02-17T01:26:05.316Z,34.03
2019-02-17T01:27:21.488Z,34.47
2019-02-17T01:28:37.637Z,28.60
2019-02-17T01:29:54.009Z,34.73
2019-02-17T01:31:10.723Z,34.77
2019-02-17T01:32:26.402Z,34.53
2019-02-17T01:33:42.711Z,33.60
2019-02-17T01:34:58.393Z,35.67
2019-02-17T01:36:14.425Z,34.83
2019-02-17T01:37:31.160Z,33.83
2019-02-17T01:38:47.147Z,33.60
2019-02-17T01:40:03.075Z,33.40
2019-02-17T01:41:19.105Z,29.37
2019-02-17T01:42:34.973Z,34.43
2019-02-17T01:43:51.099Z,31.90
2019-02-17T01:45:06.860Z,36.27
2019-02-17T01:46:22.953Z,33.93
2019-02-17T01:47:39.404Z,31.57
2019-02-17T01:48:56.629Z,32.23
2019-02-17T01:50:12.402Z,32.50
2019-02-17T01:51:29.305Z,33.13
2019-02-17T01:52:45.755Z,30.10
2019-02-17T01:54:01.706Z,28.67
2019-02-17T01:55:17.780Z,26.67
2019-02-17T01:56:34.215Z,28.83
2019-02-17T01:57:50.673Z,30.17
2019-02-17T01:59:07.200Z,26.77
2019-02-17T02:00:24.009Z,32.37
2019-02-17T02:01:39.917Z,35.90
2019-02-17T02:02:44.837Z,26.63
2019-02-17T02:04:08.555Z,33.67
2019-02-17T02:05:32.068Z,33.43
2019-02-17T02:06:55.757Z,32.77
2019-02-17T02:08:19.483Z,29.37
2019-02-17T02:09:42.935Z,30.10
2019-02-17T02:11:06.706Z,27.63
2019-02-17T02:12:30.547Z,32.20
2019-02-17T02:13:54.036Z,33.53
2019-02-17T02:15:11.128Z,34.43
2019-02-17T02:16:27.580Z,31.67
2019-02-17T02:17:43.686Z,29.83
2019-02-17T02:18:59.806Z,32.83
2019-02-17T02:20:15.497Z,38.70
2019-02-17T02:21:31.493Z,38.50
2019-02-17T02:22:47.739Z,36.03
2019-02-17T02:24:03.705Z,36.13
2019-02-17T02:25:19.874Z,36.27
2019-02-17T02:26:36.209Z,35.13
2019-02-17T02:27:52.270Z,36.90
2019-02-17T02:29:08.222Z,35.13
2019-02-17T02:30:24.629Z,34.53
2019-02-17T02:31:41.190Z,34.70
2019-02-17T02:32:45.600Z,36.53
2019-02-17T02:34:09.384Z,32.37
2019-02-17T02:35:32.904Z,34.90
2019-02-17T02:36:56.711Z,36.23
2019-02-17T02:38:20.172Z,32.90
2019-02-17T02:39:24.545Z,34.17
2019-02-17T02:40:48.283Z,33.60
2019-02-17T02:42:11.804Z,33.67
2019-02-17T02:43:35.244Z,35.67
2019-02-17T02:44:58.694Z,38.03
2019-02-17T02:46:22.113Z,36.93
2019-02-17T02:47:45.533Z,32.77
2019-02-17T02:49:08.934Z,34.77
2019-02-17T02:50:32.423Z,35.33
2019-02-17T02:51:55.873Z,37.83
2019-02-17T02:53:19.268Z,38.27
2019-02-17T02:54:23.596Z,36.67
2019-02-17T02:55:47.253Z,38.50
2019-02-17T02:57:29.903Z,33.67
2019-02-17T02:59:12.341Z,30.03
2019-02-17T03:00:36.142Z,34.23
2019-02-17T03:01:59.888Z,31.70
2019-02-17T03:03:23.526Z,32.90
2019-02-17T03:04:47.015Z,28.03
2019-02-17T03:06:29.602Z,27.57
2019-02-17T03:07:53.023Z,31.47
2019-02-17T03:09:16.500Z,33.50
2019-02-17T03:10:40.099Z,31.13
2019-02-17T03:12:03.642Z,33.40
2019-02-17T03:13:27.292Z,29.20
2019-02-17T03:14:50.757Z,32.33
2019-02-17T03:16:06.781Z,33.07
2019-02-17T03:17:22.645Z,32.50
2019-02-17T03:18:39.072Z,33.33
2019-02-17T03:19:55.566Z,32.23
2019-02-17T03:21:11.245Z,32.90
2019-02-17T03:22:30.772Z,33.27
2019-02-17T03:23:47.421Z,36.17
2019-02-17T03:25:03.249Z,34.17
2019-02-17T03:26:19.748Z,33.57
2019-02-17T03:27:35.932Z,34.70
2019-02-17T03:28:51.920Z,32.57
2019-02-17T03:30:10.617Z,34.13
2019-02-17T03:31:27.063Z,33.33
2019-02-17T03:32:42.843Z,32.50
2019-02-17T03:33:58.653Z,32.73
2019-02-17T03:35:15.294Z,34.97
2019-02-17T03:36:31.317Z,34.50
2019-02-17T03:37:47.736Z,33.27
2019-02-17T03:39:05.467Z,31.77
2019-02-17T03:40:22.625Z,32.67
2019-02-17T03:41:39.138Z,34.50
2019-02-17T03:42:55.315Z,37.10
2019-02-17T03:44:11.216Z,34.93
2019-02-17T03:45:27.155Z,33.83
2019-02-17T03:46:42.813Z,35.77
2019-02-17T03:47:58.873Z,31.97
2019-02-17T03:49:15.196Z,30.57
2019-02-17T03:50:31.603Z,31.63
2019-02-17T03:51:47.533Z,29.83
2019-02-17T03:53:03.628Z,33.57
2019-02-17T03:54:19.723Z,27.60
2019-02-17T03:55:36.045Z,32.87
2019-02-17T03:56:51.974Z,30.07
2019-02-17T03:58:07.964Z,31.63
2019-02-17T03:59:23.796Z,31.70
2019-02-17T04:00:40.196Z,28.97
2019-02-17T04:01:56.141Z,30.87
2019-02-17T04:03:11.944Z,25.17
2019-02-17T04:04:28.430Z,30.13
2019-02-17T04:05:44.814Z,32.63
2019-02-17T04:07:00.965Z,30.53
2019-02-17T04:08:16.756Z,27.73
2019-02-17T04:09:32.661Z,30.57
2019-02-17T04:10:48.680Z,28.70
2019-02-17T04:12:04.589Z,31.07
2019-02-17T04:13:20.695Z,27.10
2019-02-17T04:14:37.156Z,29.63
2019-02-17T04:15:53.331Z,30.10
2019-02-17T04:17:09.245Z,34.33
2019-02-17T04:18:25.199Z,31.17
2019-02-17T04:19:41.475Z,28.23
2019-02-17T04:20:57.656Z,27.83
2019-02-17T04:22:14.089Z,30.60
2019-02-17T04:23:31.566Z,27.83
2019-02-17T04:24:48.379Z,32.60
2019-02-17T04:26:04.318Z,31.70
2019-02-17T04:27:20.613Z,25.90
2019-02-17T04:28:38.981Z,25.33
2019-02-17T04:29:54.564Z,25.47
2019-02-17T04:31:10.669Z,28.80
2019-02-17T04:32:26.743Z,28.40
2019-02-17T04:33:43.013Z,28.23
2019-02-17T04:34:59.495Z,26.40
2019-02-17T04:37:32.982Z,26.77
2019-02-17T04:38:48.734Z,24.07
2019-02-17T04:40:05.209Z,29.53
2019-02-17T04:41:20.993Z,22.43
2019-02-17T04:42:37.137Z,23.93
2019-02-17T04:43:53.243Z,24.90
2019-02-17T04:45:09.311Z,22.83
2019-02-17T04:46:25.490Z,25.23
2019-02-17T04:47:42.008Z,23.30
2019-02-17T04:48:58.036Z,25.40
2019-02-17T04:50:13.943Z,26.20
2019-02-17T04:51:29.889Z,24.63
2019-02-17T04:52:45.920Z,26.00
2019-02-17T04:54:01.882Z,26.30
2019-02-17T04:55:17.908Z,24.97
2019-02-17T04:56:33.938Z,26.23
2019-02-17T04:57:50.759Z,26.80
2019-02-17T04:59:07.564Z,26.67
2019-02-17T05:00:23.702Z,28.00
2019-02-17T05:01:39.716Z,28.50
2019-02-17T05:02:55.748Z,29.50
2019-02-17T05:04:11.765Z,27.70
2019-02-17T05:05:28.522Z,26.33
2019-02-17T05:06:44.523Z,23.80
2019-02-17T05:08:00.791Z,27.87
2019-02-17T05:09:16.913Z,26.30
2019-02-17T05:10:32.910Z,26.00
2019-02-17T05:11:49.204Z,24.17
2019-02-17T05:13:06.000Z,26.37
2019-02-17T05:14:22.167Z,27.77
2019-02-17T05:15:38.401Z,26.67
2019-02-17T05:16:54.490Z,26.03
2019-02-17T05:18:10.401Z,24.30
2019-02-17T05:19:26.430Z,24.23
2019-02-17T05:20:42.559Z,24.50
2019-02-17T05:21:58.777Z,27.80
2019-02-17T05:23:15.432Z,29.40
2019-02-17T05:24:20.335Z,26.07
2019-02-17T05:25:44.110Z,24.20
2019-02-17T05:26:48.848Z,26.47
2019-02-17T05:28:12.988Z,26.90
2019-02-17T05:29:37.019Z,25.50
2019-02-17T05:31:01.006Z,32.47
2019-02-17T05:32:24.807Z,25.30
2019-02-17T05:33:48.582Z,30.37
2019-02-17T05:35:12.397Z,30.83
2019-02-17T05:36:36.368Z,28.23
2019-02-17T05:38:00.163Z,28.27
2019-02-17T05:39:23.900Z,31.23
2019-02-17T05:40:47.702Z,29.63
2019-02-17T05:42:11.653Z,30.10
2019-02-17T05:43:35.452Z,26.50
2019-02-17T05:44:59.166Z,28.53
2019-02-17T05:46:22.911Z,25.33
2019-02-17T05:47:46.665Z,28.70
2019-02-17T05:49:10.609Z,26.57
2019-02-17T05:50:34.341Z,27.47
2019-02-17T05:51:58.057Z,28.47
2019-02-17T05:53:21.830Z,28.50
2019-02-17T05:54:45.237Z,21.77
2019-02-17T05:56:08.890Z,26.43
2019-02-17T05:57:32.655Z,23.80
2019-02-17T05:58:56.272Z,23.33
2019-02-17T06:02:05.472Z,24.07
2019-02-17T06:03:29.254Z,25.67
2019-02-17T06:04:53.013Z,24.10
2019-02-17T06:06:16.490Z,27.40
2019-02-17T06:07:40.215Z,21.57
2019-02-17T06:10:53.838Z,25.20
2019-02-17T06:12:18.615Z,26.60
2019-02-17T06:13:42.937Z,29.13
2019-02-17T06:15:06.427Z,27.87
2019-02-17T06:16:22.658Z,31.40
2019-02-17T06:17:39.461Z,26.17
2019-02-17T06:18:55.438Z,23.20
2019-02-17T06:20:12.939Z,26.80
2019-02-17T06:21:29.333Z,27.77
2019-02-17T06:22:45.223Z,27.33
2019-02-17T06:24:01.193Z,27.33
2019-02-17T06:25:06.454Z,25.97
2019-02-17T06:26:30.168Z,23.83
2019-02-17T06:27:54.734Z,23.17
2019-02-17T06:29:18.567Z,28.23
2019-02-17T06:30:42.321Z,24.00
2019-02-17T06:32:06.090Z,24.87
2019-02-17T06:33:29.811Z,24.07
2019-02-17T06:34:53.613Z,23.97
2019-02-17T06:36:17.405Z,26.87
2019-02-17T06:37:40.898Z,28.60
2019-02-17T06:39:06.045Z,27.20
2019-02-17T06:40:29.523Z,24.67
2019-02-17T06:41:53.330Z,23.57
2019-02-17T06:43:16.901Z,22.27
2019-02-17T06:44:40.695Z,25.37
2019-02-17T06:46:04.562Z,25.13
2019-02-17T06:49:15.981Z,23.57
2019-02-17T06:50:39.759Z,20.43
2019-02-17T06:52:03.507Z,21.50
2019-02-17T06:53:27.368Z,22.73
2019-02-17T06:55:16.744Z,23.50
2019-02-17T06:56:45.040Z,25.03
2019-02-17T06:58:08.861Z,27.33
2019-02-17T06:59:32.769Z,21.53
2019-02-17T07:00:58.258Z,24.83
2019-02-17T07:02:21.656Z,23.10
2019-02-17T07:03:45.333Z,25.87
2019-02-17T07:05:27.759Z,24.20
2019-02-17T07:06:56.452Z,22.57
2019-02-17T07:08:20.261Z,23.87
2019-02-17T07:09:43.720Z,23.20
2019-02-17T07:11:07.571Z,19.77
2019-02-17T07:12:31.146Z,19.87
2019-02-17T07:13:54.664Z,19.10
2019-02-17T07:15:18.120Z,20.40
2019-02-17T07:16:34.097Z,25.30
2019-02-17T07:17:49.986Z,23.07
2019-02-17T07:19:06.441Z,20.00
2019-02-17T07:20:22.428Z,23.83
2019-02-17T07:21:38.532Z,23.43
2019-02-17T07:22:54.782Z,27.33
2019-02-17T07:24:11.331Z,24.77
2019-02-17T07:25:29.936Z,18.37
2019-02-17T07:26:44.792Z,22.13
2019-02-17T07:28:00.983Z,20.33
2019-02-17T07:29:24.557Z,21.57
2019-02-17T07:30:48.413Z,20.30
2019-02-17T07:32:12.501Z,18.33
2019-02-17T07:33:17.496Z,20.57
2019-02-17T07:34:40.982Z,17.83
2019-02-17T07:36:04.442Z,18.97
2019-02-17T07:37:33.347Z,20.70
2019-02-17T07:38:53.346Z,20.50
2019-02-17T07:40:16.883Z,20.03
2019-02-17T07:41:40.551Z,18.33
2019-02-17T07:43:18.030Z,18.90
2019-02-17T07:44:29.152Z,20.47
2019-02-17T07:45:52.902Z,20.20
2019-02-17T07:47:18.104Z,15.33
2019-02-17T07:48:41.817Z,19.37
2019-02-17T07:50:05.859Z,18.53
2019-02-17T07:53:11.931Z,17.67
2019-02-17T07:54:16.337Z,20.73
2019-02-17T07:55:39.868Z,19.70
2019-02-17T07:57:03.339Z,22.60
2019-02-17T07:58:45.793Z,19.77
2019-02-17T08:00:09.805Z,19.93
2019-02-17T08:01:33.634Z,19.03
2019-02-17T08:02:57.347Z,21.17
2019-02-17T08:04:21.194Z,17.97
2019-02-17T08:05:45.198Z,18.47
2019-02-17T08:07:08.735Z,18.00
2019-02-17T08:08:32.138Z,19.87
2019-02-17T08:09:56.175Z,20.30
2019-02-17T08:11:20.710Z,18.23
2019-02-17T08:12:44.749Z,18.97
2019-02-17T08:14:08.696Z,20.53
2019-02-17T08:15:47.260Z,18.57
2019-02-17T08:16:52.022Z,19.87
2019-02-17T08:21:19.329Z,16.27
2019-02-17T08:22:35.631Z,17.40
2019-02-17T08:23:52.187Z,19.03
2019-02-17T08:25:08.500Z,17.07
2019-02-17T08:26:26.842Z,17.23
2019-02-17T08:27:43.669Z,17.97
2019-02-17T08:29:00.133Z,16.17
2019-02-17T08:30:16.231Z,14.97
2019-02-17T08:31:32.669Z,14.53
2019-02-17T08:32:48.467Z,17.50
2019-02-17T08:34:04.766Z,17.07
2019-02-17T08:35:21.012Z,16.40
2019-02-17T08:36:37.861Z,14.90
2019-02-17T08:37:54.834Z,15.25
2019-02-17T08:39:10.615Z,15.72
2019-02-17T08:40:26.639Z,17.37
2019-02-17T08:41:43.724Z,18.57
2019-02-17T08:43:00.227Z,16.03
2019-02-17T08:44:16.299Z,15.80
2019-02-17T08:45:32.328Z,16.10
2019-02-17T08:46:49.111Z,16.45
2019-02-17T08:48:05.449Z,16.75
2019-02-17T08:49:21.646Z,16.55
2019-02-17T08:50:38.992Z,15.80
2019-02-17T08:51:55.741Z,17.23
2019-02-17T08:53:15.009Z,17.07
2019-02-17T08:54:31.206Z,15.93
2019-02-17T08:55:47.242Z,17.27
2019-02-17T08:56:51.699Z,16.47
2019-02-17T08:58:15.469Z,17.90
2019-02-17T08:59:38.980Z,15.53
2019-02-17T09:01:02.935Z,15.83
2019-02-17T09:02:26.516Z,16.73
2019-02-17T09:03:50.643Z,16.60
2019-02-17T09:04:56.854Z,14.33
2019-02-17T09:06:20.887Z,17.43
2019-02-17T09:07:44.430Z,16.83
2019-02-17T09:09:08.478Z,17.15
2019-02-17T09:11:38.876Z,17.15
2019-02-17T09:13:02.442Z,19.05
2019-02-17T09:14:26.085Z,16.35
2019-02-17T09:15:49.918Z,16.53
2019-02-17T09:17:14.060Z,19.00
2019-02-17T09:18:38.344Z,15.67
2019-02-17T09:20:02.274Z,17.98
2019-02-17T09:21:26.113Z,15.45
2019-02-17T09:22:49.805Z,16.70
2019-02-17T09:24:13.452Z,14.83
2019-02-17T09:25:37.215Z,14.30
2019-02-17T09:27:00.679Z,19.25
2019-02-17T09:28:24.384Z,16.48
2019-02-17T09:29:48.521Z,19.30
2019-02-17T09:31:12.733Z,20.00
2019-02-17T09:34:19.373Z,14.77
2019-02-17T09:35:24.405Z,17.30
2019-02-17T09:36:48.447Z,19.12
2019-02-17T09:38:14.574Z,16.83
2019-02-17T09:39:38.405Z,17.67
2019-02-17T09:40:43.290Z,17.20
2019-02-17T09:42:06.874Z,21.07
2019-02-17T09:43:30.593Z,17.87
2019-02-17T09:44:54.723Z,16.70
2019-02-17T09:46:18.711Z,16.90
2019-02-17T09:47:42.813Z,18.50
2019-02-17T09:52:16.504Z,18.50
2019-02-17T09:52:27.097Z,14.85
2019-02-17T09:53:40.498Z,16.52
2019-02-17T09:55:04.568Z,17.75
2019-02-17T09:56:28.806Z,15.60
2019-02-17T09:57:52.604Z,16.42
2019-02-17T09:59:19.606Z,18.23
2019-02-17T10:00:43.647Z,19.20
2019-02-17T10:02:07.529Z,18.15
2019-02-17T10:03:31.118Z,14.60
2019-02-17T10:04:54.901Z,16.67
2019-02-17T10:06:18.993Z,16.23
2019-02-17T10:07:42.461Z,16.10
2019-02-17T10:10:49.588Z,16.73
2019-02-17T10:12:13.576Z,16.65
2019-02-17T10:13:37.214Z,17.87
2019-02-17T10:15:02.503Z,16.93
2019-02-17T10:16:18.582Z,19.90
2019-02-17T10:17:23.178Z,19.32
2019-02-17T10:20:43.887Z,17.17
2019-02-17T10:21:57.606Z,19.10
2019-02-17T10:23:22.320Z,18.47
2019-02-17T10:24:50.142Z,18.07
2019-02-17T10:26:34.305Z,18.75
2019-02-17T10:27:57.903Z,19.55
2019-02-17T10:29:21.919Z,18.33
2019-02-17T10:30:45.429Z,18.83
2019-02-17T10:32:08.927Z,19.05
2019-02-17T10:33:32.556Z,18.07
2019-02-17T10:34:56.040Z,15.33
2019-02-17T10:36:19.597Z,17.93
2019-02-17T10:37:43.287Z,17.37
2019-02-17T10:38:47.770Z,17.50
2019-02-17T10:40:12.188Z,16.85
2019-02-17T10:41:35.710Z,18.53
2019-02-17T10:42:59.256Z,17.80
2019-02-17T10:44:22.685Z,19.40
2019-02-17T10:45:46.562Z,18.60
2019-02-17T10:47:10.384Z,19.75
2019-02-17T10:48:33.872Z,20.57
2019-02-17T10:49:57.448Z,18.33
2019-02-17T10:51:20.916Z,20.57
2019-02-17T10:52:45.084Z,19.48
2019-02-17T10:54:08.861Z,19.23
2019-02-17T10:55:32.494Z,20.60
2019-02-17T10:56:37.072Z,17.15
2019-02-17T10:58:00.643Z,21.02
2019-02-17T11:01:27.175Z,18.95
2019-02-17T11:04:21.544Z,18.87
2019-02-17T11:07:27.442Z,17.77
2019-02-17T11:08:50.988Z,16.07
2019-02-17T11:10:14.665Z,18.93
2019-02-17T11:11:38.215Z,18.67
2019-02-17T11:14:31.176Z,17.32
2019-02-17T11:15:54.630Z,16.73
2019-02-17T11:17:10.399Z,22.13
2019-02-17T11:18:26.370Z,21.10
2019-02-17T11:19:42.337Z,19.10
2019-02-17T11:20:58.220Z,19.30
2019-02-17T11:22:22.958Z,17.20
2019-02-17T11:23:32.039Z,17.60
2019-02-17T11:24:48.004Z,20.65
2019-02-17T11:26:04.160Z,16.40
2019-02-17T11:27:20.521Z,18.67
2019-02-17T11:28:36.569Z,19.27
2019-02-17T11:29:52.582Z,21.47
2019-02-17T11:31:08.641Z,19.75
2019-02-17T11:32:24.438Z,20.70
2019-02-17T11:33:40.744Z,16.67
2019-02-17T11:34:56.728Z,19.52
2019-02-17T11:36:12.904Z,22.52
2019-02-17T11:37:28.960Z,18.53
2019-02-17T11:38:45.158Z,21.45
2019-02-17T11:40:01.087Z,19.30
2019-02-17T11:41:17.291Z,18.12
2019-02-17T11:42:33.312Z,17.17
2019-02-17T11:43:49.099Z,18.00
2019-02-17T11:45:05.376Z,17.70
2019-02-17T11:46:21.321Z,20.82
2019-02-17T11:47:37.415Z,18.10
2019-02-17T11:48:53.405Z,22.20
2019-02-17T11:50:09.449Z,19.57
2019-02-17T11:51:25.714Z,20.25
2019-02-17T11:52:41.841Z,20.02
2019-02-17T11:53:57.996Z,19.35
2019-02-17T11:55:14.346Z,18.92
2019-02-17T11:56:30.154Z,22.25
2019-02-17T11:57:45.911Z,21.15
2019-02-17T11:59:01.923Z,17.35
2019-02-17T12:00:17.962Z,18.98
2019-02-17T12:01:33.885Z,20.75
2019-02-17T12:02:49.914Z,17.48
2019-02-17T12:04:05.876Z,17.98
2019-02-17T12:05:22.013Z,20.43
2019-02-17T12:06:37.957Z,20.37
2019-02-17T12:07:54.002Z,19.52
2019-02-17T12:09:10.891Z,18.00
2019-02-17T12:10:27.533Z,21.12
2019-02-17T12:11:43.684Z,18.90
2019-02-17T12:12:59.714Z,19.85
2019-02-17T12:14:15.577Z,17.95
2019-02-17T12:15:31.896Z,19.25
2019-02-17T12:16:48.034Z,19.70
2019-02-17T12:18:04.010Z,18.17
2019-02-17T12:19:20.161Z,18.85
2019-02-17T12:20:57.617Z,19.12
2019-02-17T12:22:38.114Z,16.97
2019-02-17T12:25:31.936Z,17.42
2019-02-17T12:27:01.762Z,20.72
2019-02-17T12:29:42.263Z,18.70
2019-02-17T12:30:58.108Z,18.32
2019-02-17T12:32:14.208Z,19.80
2019-02-17T12:33:30.122Z,16.42
2019-02-17T12:34:45.902Z,16.57
2019-02-17T12:36:02.271Z,16.55
2019-02-17T12:37:18.599Z,15.30
2019-02-17T12:38:34.326Z,19.40
2019-02-17T12:39:50.630Z,19.50
2019-02-17T12:41:07.090Z,18.57
2019-02-17T12:42:23.416Z,15.10
2019-02-17T12:43:39.330Z,16.05
2019-02-17T12:44:57.019Z,19.95
2019-02-17T12:46:13.456Z,17.23
2019-02-17T12:47:29.454Z,19.42
2019-02-17T12:48:45.557Z,20.23
2019-02-17T12:50:01.861Z,18.42
2019-02-17T12:51:17.802Z,15.78
2019-02-17T12:52:33.825Z,18.00
2019-02-17T12:53:49.918Z,17.23
2019-02-17T12:55:06.138Z,18.20
2019-02-17T12:56:22.425Z,21.23
2019-02-17T12:57:38.893Z,18.80
2019-02-17T12:58:54.437Z,14.95
2019-02-17T13:00:10.448Z,16.73
2019-02-17T13:01:26.397Z,16.50
2019-02-17T13:02:42.675Z,15.85
2019-02-17T13:03:58.684Z,16.35
2019-02-17T13:05:14.644Z,18.73
2019-02-17T13:06:30.639Z,17.37
2019-02-17T13:07:46.529Z,14.55
2019-02-17T13:09:02.686Z,16.95
2019-02-17T13:10:18.470Z,17.82
2019-02-17T13:11:34.514Z,16.73
2019-02-17T13:12:50.650Z,17.80
2019-02-17T13:14:06.558Z,19.75
2019-02-17T13:15:22.534Z,18.85
2019-02-17T13:16:38.633Z,17.85
2019-02-17T13:17:54.515Z,16.97
2019-02-17T13:19:10.528Z,16.23
2019-02-17T13:20:26.390Z,16.77
2019-02-17T13:21:42.457Z,16.02
2019-02-17T13:22:58.447Z,17.62
2019-02-17T13:24:14.203Z,16.62
2019-02-17T13:25:30.402Z,16.17
2019-02-17T13:26:46.266Z,16.60
2019-02-17T13:28:02.315Z,16.57
2019-02-17T13:29:18.673Z,16.60
2019-02-17T13:30:34.933Z,17.52
2019-02-17T13:31:51.227Z,17.80
2019-02-17T13:33:07.596Z,17.60
2019-02-17T13:34:24.290Z,19.42
2019-02-17T13:35:40.202Z,20.15
2019-02-17T13:36:56.051Z,16.77
2019-02-17T13:38:12.098Z,22.10
2019-02-17T13:39:28.152Z,18.65
2019-02-17T13:40:44.268Z,19.87
2019-02-17T13:42:00.008Z,18.80
2019-02-17T13:43:16.325Z,18.25
2019-02-17T13:44:32.101Z,16.20
2019-02-17T13:45:48.282Z,17.45
2019-02-17T13:47:04.276Z,17.48
2019-02-17T13:48:20.421Z,17.27
2019-02-17T13:49:36.337Z,17.10
2019-02-17T13:50:52.739Z,19.95
2019-02-17T13:52:08.486Z,18.75
2019-02-17T13:53:24.424Z,16.62
2019-02-17T13:54:40.424Z,19.87
2019-02-17T13:55:56.276Z,17.32
2019-02-17T13:57:12.542Z,17.07
2019-02-17T13:58:29.069Z,17.87
2019-02-17T13:59:45.116Z,16.48
2019-02-17T14:01:00.958Z,20.08
2019-02-17T14:02:16.745Z,16.42
2019-02-17T14:03:33.035Z,17.20
2019-02-17T14:04:49.150Z,18.05
2019-02-17T14:06:05.447Z,20.08
2019-02-17T14:07:21.548Z,20.72
2019-02-17T14:08:37.752Z,17.15
2019-02-17T14:09:53.815Z,16.93
2019-02-17T14:11:09.777Z,17.45
2019-02-17T14:12:25.678Z,15.90
2019-02-17T14:13:41.838Z,18.98
2019-02-17T14:14:57.991Z,17.85
2019-02-17T14:16:14.389Z,16.67
2019-02-17T14:17:30.326Z,17.07
2019-02-17T14:18:46.264Z,15.38
2019-02-17T14:20:04.667Z,18.70
2019-02-17T14:21:20.311Z,15.03
2019-02-17T14:22:36.788Z,16.23
2019-02-17T14:23:52.895Z,17.00
2019-02-17T14:25:10.862Z,17.12
2019-02-17T14:26:26.784Z,16.27
2019-02-17T14:27:43.093Z,18.35
2019-02-17T14:28:59.362Z,12.85
2019-02-17T14:30:15.668Z,14.73
2019-02-17T14:31:31.777Z,13.00
2019-02-17T14:32:47.589Z,14.73
2019-02-17T14:34:03.537Z,11.95
2019-02-17T14:35:19.577Z,13.38
2019-02-17T14:36:35.420Z,14.33
2019-02-17T14:37:51.679Z,13.70
2019-02-17T14:39:08.042Z,13.28
2019-02-17T14:40:24.392Z,13.68
2019-02-17T14:41:40.447Z,12.68
2019-02-17T14:42:56.515Z,14.00
2019-02-17T14:44:12.992Z,11.10
2019-02-17T14:45:29.597Z,11.55
2019-02-17T14:46:45.689Z,13.98
2019-02-17T14:48:01.579Z,11.95
2019-02-17T14:49:17.901Z,12.93
2019-02-17T14:50:36.227Z,13.18
2019-02-17T14:51:52.761Z,12.28
2019-02-17T14:53:08.940Z,11.15
2019-02-17T14:54:24.829Z,13.45
2019-02-17T14:55:41.114Z,12.70
2019-02-17T14:56:56.993Z,10.93
2019-02-17T14:58:13.246Z,11.65
2019-02-17T14:59:29.350Z,12.37
2019-02-17T15:00:45.485Z,13.93
2019-02-17T15:02:01.154Z,12.15
2019-02-17T15:03:17.099Z,11.12
2019-02-17T15:04:33.022Z,11.18
2019-02-17T15:05:49.004Z,9.68
2019-02-17T15:07:05.271Z,11.43
2019-02-17T15:08:21.243Z,12.35
2019-02-17T15:09:37.008Z,10.28
2019-02-17T15:10:53.140Z,11.22
2019-02-17T15:12:09.372Z,11.75
2019-02-17T15:13:25.667Z,13.60
2019-02-17T15:14:41.949Z,11.53
2019-02-17T15:15:57.961Z,11.60
2019-02-17T15:17:14.863Z,11.40
2019-02-17T15:18:30.870Z,9.60
2019-02-17T15:19:47.069Z,9.88
2019-02-17T15:21:03.130Z,11.03
2019-02-17T15:22:19.803Z,11.28
2019-02-17T15:23:36.026Z,10.60
2019-02-17T15:24:52.065Z,11.03
2019-02-17T15:26:07.922Z,9.95
2019-02-17T15:27:24.079Z,10.88
2019-02-17T15:28:50.204Z,10.28
2019-02-17T15:29:58.898Z,11.70
2019-02-17T15:31:15.177Z,10.65
2019-02-17T15:32:31.453Z,10.32
2019-02-17T15:33:47.426Z,11.22
2019-02-17T15:35:03.334Z,11.55
2019-02-17T15:36:19.238Z,10.90
2019-02-17T15:37:35.288Z,13.13
2019-02-17T15:38:51.487Z,10.13
2019-02-17T15:40:07.449Z,11.08
2019-02-17T15:41:23.638Z,12.10
2019-02-17T15:42:40.025Z,10.28
2019-02-17T15:43:56.181Z,12.47
2019-02-17T15:45:12.414Z,13.95
2019-02-17T15:46:28.741Z,13.75
2019-02-17T15:47:45.357Z,15.80
2019-02-17T15:49:01.248Z,13.00
2019-02-17T15:50:17.490Z,12.37
2019-02-17T15:51:33.173Z,16.67
2019-02-17T15:52:49.198Z,14.98
2019-02-17T15:54:05.081Z,11.60
2019-02-17T15:55:21.394Z,15.10
2019-02-17T15:56:37.384Z,12.00
2019-02-17T15:57:53.510Z,12.43
2019-02-17T15:59:09.639Z,15.20
2019-02-17T16:00:25.959Z,14.47
2019-02-17T16:01:30.800Z,13.40
2019-02-17T16:02:35.742Z,13.65
2019-02-17T16:07:03.982Z,14.35
2019-02-17T16:11:25.740Z,13.70
2019-02-17T16:12:49.443Z,11.63
2019-02-17T16:14:12.962Z,12.75
2019-02-17T16:15:36.475Z,13.00
2019-02-17T16:17:00.099Z,15.13
2019-02-17T16:21:56.587Z,13.68
2019-02-17T16:25:02.622Z,14.35
2019-02-17T16:26:38.066Z,15.68
2019-02-17T16:31:02.802Z,13.68
2019-02-17T16:34:20.657Z,11.97
2019-02-17T16:35:34.119Z,12.70
2019-02-17T16:36:59.353Z,13.90
2019-02-17T16:38:22.803Z,15.58
2019-02-17T16:39:46.303Z,15.53
2019-02-17T16:44:39.383Z,15.45
2019-02-17T16:47:33.293Z,13.43
2019-02-17T16:48:56.822Z,13.08
2019-02-17T16:50:20.326Z,14.83
2019-02-17T16:51:43.886Z,14.05
2019-02-17T16:53:07.377Z,14.85
2019-02-17T16:54:30.932Z,11.30
2019-02-17T16:55:54.584Z,12.10
2019-02-17T16:57:18.375Z,12.45
2019-02-17T16:58:22.958Z,13.62
2019-02-17T16:59:27.513Z,11.27
2019-02-17T17:00:31.978Z,12.93
2019-02-17T17:01:36.465Z,12.75
2019-02-17T17:02:44.022Z,12.82
2019-02-17T17:03:48.559Z,12.35
2019-02-17T17:04:53.297Z,13.35
2019-02-17T17:05:57.906Z,12.85
2019-02-17T17:07:02.520Z,14.67
2019-02-17T17:08:07.608Z,12.28
2019-02-17T17:09:14.371Z,12.75
2019-02-17T17:10:20.829Z,13.20
2019-02-17T17:11:27.871Z,11.03
2019-02-17T17:12:35.464Z,14.50
2019-02-17T17:13:40.274Z,12.58
2019-02-17T17:14:44.875Z,14.10
2019-02-17T17:15:49.422Z,12.25
2019-02-17T17:16:53.944Z,14.30
2019-02-17T17:17:58.849Z,14.10
2019-02-17T17:19:03.409Z,14.53
2019-02-17T17:20:08.835Z,15.35
2019-02-17T17:21:13.886Z,16.27
2019-02-17T17:22:18.616Z,19.47
2019-02-17T17:23:23.116Z,16.45
2019-02-17T17:24:27.706Z,14.80
2019-02-17T17:25:33.395Z,15.23
2019-02-17T17:26:39.323Z,14.75
2019-02-17T17:27:45.286Z,15.40
2019-02-17T17:28:50.304Z,15.65
2019-02-17T17:29:57.909Z,13.50
2019-02-17T17:31:02.578Z,16.07
2019-02-17T17:32:07.282Z,17.15
2019-02-17T17:33:12.600Z,14.40
2019-02-17T17:34:17.336Z,15.40
2019-02-17T17:35:21.873Z,16.10
2019-02-17T17:36:27.133Z,14.07
2019-02-17T17:37:31.903Z,14.83